OMRK

Details ICAO OMRK (RKT)
Name RAS AL KHAIMAH INTL
Region United Arab Emirates
Timezone Asia/Dubai (UTC+4.0)
Plans Departing 131
Arriving 45
Stats Elevation 102 ft / 31 m (AMSL)
Location 25.613352° 55.938831°
Runways 1
Magnetic Variation 2.078° E
Sunrise 2018-06-23 01:27:32 UTC / 2018-06-23 05:27:32 Local
Sunset 2018-06-23 15:11:43 UTC / 2018-06-23 19:11:43 Local
Advertisement - Login to hide

Runways

ID Width Length Bearing (true) Bearing (mag) Surface Threshold Offset Overrun Length
16 148 ft / 45 m 12,391 ft / 3,777 m 164.83° 162.75° Asphalt 0 ft / 0 m 165 ft / 50 m
34 148 ft / 45 m 12,391 ft / 3,777 m 344.84° 342.76° Asphalt 0 ft / 0 m 165 ft / 50 m

Map

Weather


0- 5 10 15 20 25 30 35+ Temperature / ° C

Clouds and Precipitation
Forecast for 2018-06-23 00:00 UTC. Updated an hour ago

Ground ~20,000 ft ~40,000 ft Winds

METAR

OMRK 222200Z 19007KT CAVOK 30/24 Q0999 A2951

TAF

TAF OMRK 221651Z 2218/2400 19005KT 8000 NSC PROB30 2223/2304 4000 HZ BECMG 2306/2308 29012KT BECMG 2315/2317 19005KT

Frequencies

Ground 121.60 MHz GND
Tower 118.25 MHz TWR
Warning: Do not use this data for real-world aviation or navigation. No guarantee of current accuracy is given.